KHQG

Hugoton Municipal Airport

Hugoton, Kansas, USA
METAR KHQG 211535Z AUTO 17009KT 10SM CLR 01/M01 A2965 RMK AO2 T00051010
Observed Flight Rules
Jan-21 @ 15:35 UTC (20 minutes ago) Visual Flight Rules
Wind Visibility Clouds
170° at 9 knots 10 miles
  • Clear skies
Temperatures Readings
Current 1°C / 34°F
Dewpoint -1°C / 30°F
Humidity 87%
Altimeter 29.65" Hg
Pressure 1004.02 hPa
Elevation 956
METAR KHQG 211535Z AUTO 17009KT 10SM CLR 01/M01 A2965 RMK AO2 T00051010
Observed Flight Rules
Jan-21 @ 15:35 UTC
(20 minutes ago)
VFR
Wind Visibility
170° at 9 knots 10 miles
Clouds
  • Clear skies
Temperature Dewpoint
1°C / 34°F -1°C / 30°F
Humidity Altimeter Pressure
87% 29.65" Hg 1004.02 hPa